sensor_id;sensor_type;location;lat;lon;timestamp;P1;durP1;ratioP1;P2;durP2;ratioP2
34775;SDS011;20989;52.566;13.346;2022-08-25T00:00:21;1.80;;;1.70;;
34775;SDS011;20989;52.566;13.346;2022-08-25T00:03:22;1.35;;;1.30;;
34775;SDS011;20989;52.566;13.346;2022-08-25T00:06:23;1.77;;;1.67;;
34775;SDS011;20989;52.566;13.346;2022-08-25T00:09:24;1.48;;;1.42;;
34775;SDS011;20989;52.566;13.346;2022-08-25T00:12:26;1.52;;;1.42;;
34775;SDS011;20989;52.566;13.346;2022-08-25T00:15:27;1.15;;;1.15;;
34775;SDS011;20989;52.566;13.346;2022-08-25T00:18:30;1.70;;;1.60;;
34775;SDS011;20989;52.566;13.346;2022-08-25T00:21:31;1.13;;;1.13;;
34775;SDS011;20989;52.566;13.346;2022-08-25T00:24:31;1.40;;;1.30;;
34775;SDS011;20989;52.566;13.346;2022-08-25T00:27:32;1.75;;;1.65;;
34775;SDS011;20989;52.566;13.346;2022-08-25T00:30:33;1.20;;;1.20;;
34775;SDS011;20989;52.566;13.346;2022-08-25T00:33:35;2.85;;;1.23;;
34775;SDS011;20989;52.566;13.346;2022-08-25T00:36:36;1.40;;;1.30;;
34775;SDS011;20989;52.566;13.346;2022-08-25T00:39:37;1.38;;;1.35;;
34775;SDS011;20989;52.566;13.346;2022-08-25T00:42:38;1.58;;;1.48;;
34775;SDS011;20989;52.566;13.346;2022-08-25T00:45:40;1.60;;;1.35;;
34775;SDS011;20989;52.566;13.346;2022-08-25T00:48:41;1.27;;;1.17;;
34775;SDS011;20989;52.566;13.346;2022-08-25T00:51:51;1.73;;;1.30;;
34775;SDS011;20989;52.566;13.346;2022-08-25T00:54:56;1.25;;;1.17;;
34775;SDS011;20989;52.566;13.346;2022-08-25T00:58:02;1.30;;;1.20;;
34775;SDS011;20989;52.566;13.346;2022-08-25T01:01:07;1.30;;;1.20;;
34775;SDS011;20989;52.566;13.346;2022-08-25T01:04:08;1.30;;;1.20;;
34775;SDS011;20989;52.566;13.346;2022-08-25T01:07:09;1.08;;;1.08;;
34775;SDS011;20989;52.566;13.346;2022-08-25T01:10:11;1.20;;;1.20;;
34775;SDS011;20989;52.566;13.346;2022-08-25T01:13:23;1.27;;;1.20;;
34775;SDS011;20989;52.566;13.346;2022-08-25T01:16:28;1.00;;;1.00;;
34775;SDS011;20989;52.566;13.346;2022-08-25T01:19:29;1.23;;;1.13;;
34775;SDS011;20989;52.566;13.346;2022-08-25T01:22:32;1.10;;;1.10;;
34775;SDS011;20989;52.566;13.346;2022-08-25T01:28:47;1.50;;;1.40;;
34775;SDS011;20989;52.566;13.346;2022-08-25T01:32:08;1.45;;;1.35;;
34775;SDS011;20989;52.566;13.346;2022-08-25T01:35:12;1.35;;;1.23;;
34775;SDS011;20989;52.566;13.346;2022-08-25T01:38:13;1.48;;;1.38;;
34775;SDS011;20989;52.566;13.346;2022-08-25T01:41:15;1.42;;;1.33;;
34775;SDS011;20989;52.566;13.346;2022-08-25T01:44:20;1.00;;;1.00;;
34775;SDS011;20989;52.566;13.346;2022-08-25T01:47:21;1.20;;;1.10;;
34775;SDS011;20989;52.566;13.346;2022-08-25T01:50:23;1.13;;;1.13;;
34775;SDS011;20989;52.566;13.346;2022-08-25T01:53:28;1.38;;;1.38;;
34775;SDS011;20989;52.566;13.346;2022-08-25T01:56:29;1.02;;;1.02;;
34775;SDS011;20989;52.566;13.346;2022-08-25T01:59:30;1.30;;;1.20;;
34775;SDS011;20989;52.566;13.346;2022-08-25T02:02:31;1.30;;;1.20;;
34775;SDS011;20989;52.566;13.346;2022-08-25T02:05:32;1.30;;;1.30;;
34775;SDS011;20989;52.566;13.346;2022-08-25T02:08:32;1.20;;;1.10;;
34775;SDS011;20989;52.566;13.346;2022-08-25T02:11:34;1.33;;;1.10;;
34775;SDS011;20989;52.566;13.346;2022-08-25T02:14:37;1.50;;;1.40;;
34775;SDS011;20989;52.566;13.346;2022-08-25T02:17:37;1.20;;;1.13;;
34775;SDS011;20989;52.566;13.346;2022-08-25T02:20:38;1.20;;;1.20;;
34775;SDS011;20989;52.566;13.346;2022-08-25T02:23:39;1.10;;;1.10;;
34775;SDS011;20989;52.566;13.346;2022-08-25T02:26:41;1.30;;;1.20;;
34775;SDS011;20989;52.566;13.346;2022-08-25T02:29:42;1.30;;;1.20;;
34775;SDS011;20989;52.566;13.346;2022-08-25T02:32:42;1.20;;;1.20;;
34775;SDS011;20989;52.566;13.346;2022-08-25T02:35:43;0.95;;;0.90;;
34775;SDS011;20989;52.566;13.346;2022-08-25T02:38:44;1.23;;;1.13;;
34775;SDS011;20989;52.566;13.346;2022-08-25T02:41:45;1.20;;;1.20;;
34775;SDS011;20989;52.566;13.346;2022-08-25T02:44:45;0.90;;;0.90;;
34775;SDS011;20989;52.566;13.346;2022-08-25T02:47:47;1.08;;;1.05;;
34775;SDS011;20989;52.566;13.346;2022-08-25T02:50:48;1.38;;;1.27;;
34775;SDS011;20989;52.566;13.346;2022-08-25T02:53:51;1.13;;;1.05;;
34775;SDS011;20989;52.566;13.346;2022-08-25T02:56:52;1.00;;;1.00;;
34775;SDS011;20989;52.566;13.346;2022-08-25T02:59:52;1.05;;;1.05;;
34775;SDS011;20989;52.566;13.346;2022-08-25T03:02:53;1.10;;;1.00;;
34775;SDS011;20989;52.566;13.346;2022-08-25T03:05:54;2.10;;;1.05;;
34775;SDS011;20989;52.566;13.346;2022-08-25T03:08:56;1.23;;;1.23;;
34775;SDS011;20989;52.566;13.346;2022-08-25T03:11:57;1.00;;;1.00;;
34775;SDS011;20989;52.566;13.346;2022-08-25T03:14:57;1.00;;;1.00;;
34775;SDS011;20989;52.566;13.346;2022-08-25T03:17:58;1.50;;;1.15;;
34775;SDS011;20989;52.566;13.346;2022-08-25T03:21:00;1.30;;;1.20;;
34775;SDS011;20989;52.566;13.346;2022-08-25T03:24:02;1.02;;;1.02;;
34775;SDS011;20989;52.566;13.346;2022-08-25T03:27:04;1.60;;;1.50;;
34775;SDS011;20989;52.566;13.346;2022-08-25T03:30:05;1.02;;;1.02;;
34775;SDS011;20989;52.566;13.346;2022-08-25T03:33:06;1.13;;;1.10;;
34775;SDS011;20989;52.566;13.346;2022-08-25T03:36:07;1.10;;;1.10;;
34775;SDS011;20989;52.566;13.346;2022-08-25T03:39:11;1.02;;;1.02;;
34775;SDS011;20989;52.566;13.346;2022-08-25T03:42:12;0.90;;;0.90;;
34775;SDS011;20989;52.566;13.346;2022-08-25T03:45:13;1.00;;;1.00;;
34775;SDS011;20989;52.566;13.346;2022-08-25T03:48:15;1.05;;;1.02;;
34775;SDS011;20989;52.566;13.346;2022-08-25T03:51:23;1.08;;;1.02;;
34775;SDS011;20989;52.566;13.346;2022-08-25T03:54:26;1.30;;;1.30;;
34775;SDS011;20989;52.566;13.346;2022-08-25T03:57:27;0.98;;;0.98;;
34775;SDS011;20989;52.566;13.346;2022-08-25T04:00:28;1.15;;;1.15;;
34775;SDS011;20989;52.566;13.346;2022-08-25T04:03:29;1.40;;;1.30;;
34775;SDS011;20989;52.566;13.346;2022-08-25T04:06:29;1.60;;;1.50;;
34775;SDS011;20989;52.566;13.346;2022-08-25T04:09:31;1.17;;;1.08;;
34775;SDS011;20989;52.566;13.346;2022-08-25T04:12:31;1.25;;;1.25;;
34775;SDS011;20989;52.566;13.346;2022-08-25T04:15:33;2.03;;;1.50;;
34775;SDS011;20989;52.566;13.346;2022-08-25T04:18:34;1.75;;;1.23;;
34775;SDS011;20989;52.566;13.346;2022-08-25T04:21:38;1.40;;;1.30;;
34775;SDS011;20989;52.566;13.346;2022-08-25T04:24:39;1.40;;;1.27;;
34775;SDS011;20989;52.566;13.346;2022-08-25T04:27:40;1.27;;;1.15;;
34775;SDS011;20989;52.566;13.346;2022-08-25T04:30:41;1.40;;;1.30;;
34775;SDS011;20989;52.566;13.346;2022-08-25T04:33:42;2.33;;;1.50;;
34775;SDS011;20989;52.566;13.346;2022-08-25T04:36:43;1.67;;;1.58;;
34775;SDS011;20989;52.566;13.346;2022-08-25T04:39:44;1.42;;;1.33;;
34775;SDS011;20989;52.566;13.346;2022-08-25T04:42:45;1.20;;;1.20;;
34775;SDS011;20989;52.566;13.346;2022-08-25T04:45:45;1.30;;;1.20;;
34775;SDS011;20989;52.566;13.346;2022-08-25T04:48:46;1.65;;;1.55;;
34775;SDS011;20989;52.566;13.346;2022-08-25T04:51:48;1.58;;;1.48;;
34775;SDS011;20989;52.566;13.346;2022-08-25T04:54:49;1.35;;;1.25;;
34775;SDS011;20989;52.566;13.346;2022-08-25T04:57:49;1.20;;;1.20;;
34775;SDS011;20989;52.566;13.346;2022-08-25T05:00:50;1.58;;;1.48;;
34775;SDS011;20989;52.566;13.346;2022-08-25T05:03:55;1.60;;;1.50;;
34775;SDS011;20989;52.566;13.346;2022-08-25T05:06:58;1.77;;;1.60;;
34775;SDS011;20989;52.566;13.346;2022-08-25T05:09:59;1.30;;;1.20;;
34775;SDS011;20989;52.566;13.346;2022-08-25T05:13:00;1.52;;;1.42;;
34775;SDS011;20989;52.566;13.346;2022-08-25T05:16:01;1.30;;;1.30;;
34775;SDS011;20989;52.566;13.346;2022-08-25T05:19:02;2.67;;;1.20;;
34775;SDS011;20989;52.566;13.346;2022-08-25T05:22:03;1.63;;;1.33;;
34775;SDS011;20989;52.566;13.346;2022-08-25T05:25:04;1.40;;;1.40;;
34775;SDS011;20989;52.566;13.346;2022-08-25T05:28:06;1.40;;;1.30;;
34775;SDS011;20989;52.566;13.346;2022-08-25T05:31:06;1.67;;;1.58;;
34775;SDS011;20989;52.566;13.346;2022-08-25T05:34:09;1.52;;;1.45;;
34775;SDS011;20989;52.566;13.346;2022-08-25T05:37:11;1.50;;;1.40;;
34775;SDS011;20989;52.566;13.346;2022-08-25T05:40:11;1.50;;;1.40;;
34775;SDS011;20989;52.566;13.346;2022-08-25T05:43:12;1.50;;;1.40;;
34775;SDS011;20989;52.566;13.346;2022-08-25T05:46:14;1.67;;;1.58;;
34775;SDS011;20989;52.566;13.346;2022-08-25T05:49:17;1.88;;;1.35;;
34775;SDS011;20989;52.566;13.346;2022-08-25T05:52:18;1.80;;;1.70;;
34775;SDS011;20989;52.566;13.346;2022-08-25T05:55:19;1.40;;;1.30;;
34775;SDS011;20989;52.566;13.346;2022-08-25T05:58:20;1.60;;;1.50;;
34775;SDS011;20989;52.566;13.346;2022-08-25T06:01:25;1.45;;;1.40;;
34775;SDS011;20989;52.566;13.346;2022-08-25T06:04:46;1.45;;;1.35;;
34775;SDS011;20989;52.566;13.346;2022-08-25T06:07:47;1.38;;;1.38;;
34775;SDS011;20989;52.566;13.346;2022-08-25T06:10:52;1.67;;;1.58;;
34775;SDS011;20989;52.566;13.346;2022-08-25T06:13:53;1.50;;;1.40;;
34775;SDS011;20989;52.566;13.346;2022-08-25T06:16:54;6.55;;;1.67;;
34775;SDS011;20989;52.566;13.346;2022-08-25T06:19:55;23.13;;;5.80;;
34775;SDS011;20989;52.566;13.346;2022-08-25T06:22:56;12.98;;;6.05;;
34775;SDS011;20989;52.566;13.346;2022-08-25T06:25:58;7.22;;;6.53;;
34775;SDS011;20989;52.566;13.346;2022-08-25T06:28:58;13.20;;;7.20;;
34775;SDS011;20989;52.566;13.346;2022-08-25T06:31:59;19.73;;;9.32;;
34775;SDS011;20989;52.566;13.346;2022-08-25T06:35:00;9.23;;;7.07;;
34775;SDS011;20989;52.566;13.346;2022-08-25T06:38:05;13.20;;;9.85;;
34775;SDS011;20989;52.566;13.346;2022-08-25T06:41:06;14.38;;;8.80;;
34775;SDS011;20989;52.566;13.346;2022-08-25T06:44:10;16.98;;;10.77;;
34775;SDS011;20989;52.566;13.346;2022-08-25T06:47:11;11.52;;;9.70;;
34775;SDS011;20989;52.566;13.346;2022-08-25T06:50:11;11.32;;;10.23;;
34775;SDS011;20989;52.566;13.346;2022-08-25T06:53:12;16.02;;;10.77;;
34775;SDS011;20989;52.566;13.346;2022-08-25T06:56:13;25.67;;;10.88;;
34775;SDS011;20989;52.566;13.346;2022-08-25T06:59:15;16.88;;;11.25;;
34775;SDS011;20989;52.566;13.346;2022-08-25T07:02:16;16.80;;;10.85;;
34775;SDS011;20989;52.566;13.346;2022-08-25T07:05:17;24.38;;;11.20;;
34775;SDS011;20989;52.566;13.346;2022-08-25T07:08:17;26.95;;;10.48;;
34775;SDS011;20989;52.566;13.346;2022-08-25T07:11:18;31.10;;;14.25;;
34775;SDS011;20989;52.566;13.346;2022-08-25T07:14:22;21.00;;;15.25;;
34775;SDS011;20989;52.566;13.346;2022-08-25T07:17:23;29.27;;;17.52;;
34775;SDS011;20989;52.566;13.346;2022-08-25T07:20:23;23.63;;;17.80;;
34775;SDS011;20989;52.566;13.346;2022-08-25T07:23:24;28.95;;;19.67;;
34775;SDS011;20989;52.566;13.346;2022-08-25T07:26:29;24.65;;;16.67;;
34775;SDS011;20989;52.566;13.346;2022-08-25T07:29:34;28.65;;;20.13;;
34775;SDS011;20989;52.566;13.346;2022-08-25T07:32:37;32.95;;;17.88;;
34775;SDS011;20989;52.566;13.346;2022-08-25T07:35:38;39.38;;;19.17;;
34775;SDS011;20989;52.566;13.346;2022-08-25T07:38:39;26.45;;;17.70;;
34775;SDS011;20989;52.566;13.346;2022-08-25T07:41:40;27.60;;;17.00;;
34775;SDS011;20989;52.566;13.346;2022-08-25T07:44:41;23.02;;;16.17;;
34775;SDS011;20989;52.566;13.346;2022-08-25T07:47:42;32.05;;;20.23;;
34775;SDS011;20989;52.566;13.346;2022-08-25T07:50:43;25.40;;;17.58;;
34775;SDS011;20989;52.566;13.346;2022-08-25T07:53:44;26.98;;;19.45;;
34775;SDS011;20989;52.566;13.346;2022-08-25T07:56:45;27.88;;;19.95;;
34775;SDS011;20989;52.566;13.346;2022-08-25T07:59:45;33.22;;;21.85;;
34775;SDS011;20989;52.566;13.346;2022-08-25T08:02:46;31.48;;;19.45;;
34775;SDS011;20989;52.566;13.346;2022-08-25T08:05:47;25.00;;;17.77;;
34775;SDS011;20989;52.566;13.346;2022-08-25T08:08:48;29.65;;;20.30;;
34775;SDS011;20989;52.566;13.346;2022-08-25T08:11:50;36.67;;;20.98;;
34775;SDS011;20989;52.566;13.346;2022-08-25T08:14:52;38.97;;;22.67;;
34775;SDS011;20989;52.566;13.346;2022-08-25T08:17:53;33.15;;;22.27;;
34775;SDS011;20989;52.566;13.346;2022-08-25T08:20:53;49.33;;;20.42;;
34775;SDS011;20989;52.566;13.346;2022-08-25T08:23:54;33.13;;;18.80;;
34775;SDS011;20989;52.566;13.346;2022-08-25T08:26:55;27.63;;;19.60;;
34775;SDS011;20989;52.566;13.346;2022-08-25T08:29:57;35.33;;;22.67;;
34775;SDS011;20989;52.566;13.346;2022-08-25T08:32:58;26.98;;;19.05;;
34775;SDS011;20989;52.566;13.346;2022-08-25T08:39:00;39.72;;;19.67;;
34775;SDS011;20989;52.566;13.346;2022-08-25T08:45:26;31.38;;;22.80;;
34775;SDS011;20989;52.566;13.346;2022-08-25T08:52:00;35.50;;;19.47;;
34775;SDS011;20989;52.566;13.346;2022-08-25T08:55:04;24.33;;;17.75;;
34775;SDS011;20989;52.566;13.346;2022-08-25T08:58:20;22.40;;;17.38;;
34775;SDS011;20989;52.566;13.346;2022-08-25T09:01:46;23.75;;;16.58;;
34775;SDS011;20989;52.566;13.346;2022-08-25T09:04:59;29.42;;;15.93;;
34775;SDS011;20989;52.566;13.346;2022-08-25T09:08:04;22.85;;;15.93;;
34775;SDS011;20989;52.566;13.346;2022-08-25T09:14:18;24.95;;;16.15;;
34775;SDS011;20989;52.566;13.346;2022-08-25T09:27:31;25.55;;;15.63;;
34775;SDS011;20989;52.566;13.346;2022-08-25T09:30:47;22.27;;;14.57;;
34775;SDS011;20989;52.566;13.346;2022-08-25T09:33:50;18.85;;;13.52;;
34775;SDS011;20989;52.566;13.346;2022-08-25T09:36:54;25.23;;;12.10;;
34775;SDS011;20989;52.566;13.346;2022-08-25T09:39:55;19.58;;;12.85;;
34775;SDS011;20989;52.566;13.346;2022-08-25T09:42:57;16.35;;;13.05;;
34775;SDS011;20989;52.566;13.346;2022-08-25T09:49:33;19.17;;;13.45;;
34775;SDS011;20989;52.566;13.346;2022-08-25T09:52:41;17.98;;;11.40;;
34775;SDS011;20989;52.566;13.346;2022-08-25T09:55:43;14.23;;;11.60;;
34775;SDS011;20989;52.566;13.346;2022-08-25T09:58:46;16.63;;;11.68;;
34775;SDS011;20989;52.566;13.346;2022-08-25T10:01:48;19.88;;;11.50;;
34775;SDS011;20989;52.566;13.346;2022-08-25T10:04:53;16.77;;;10.50;;
34775;SDS011;20989;52.566;13.346;2022-08-25T10:07:56;22.38;;;12.32;;
34775;SDS011;20989;52.566;13.346;2022-08-25T10:10:59;22.67;;;11.55;;
34775;SDS011;20989;52.566;13.346;2022-08-25T10:14:14;17.55;;;13.40;;
34775;SDS011;20989;52.566;13.346;2022-08-25T10:17:25;20.20;;;10.70;;
34775;SDS011;20989;52.566;13.346;2022-08-25T10:20:28;23.40;;;10.88;;
34775;SDS011;20989;52.566;13.346;2022-08-25T10:23:28;16.98;;;9.60;;
34775;SDS011;20989;52.566;13.346;2022-08-25T10:37:05;16.80;;;10.27;;
34775;SDS011;20989;52.566;13.346;2022-08-25T10:40:39;28.02;;;9.93;;
34775;SDS011;20989;52.566;13.346;2022-08-25T10:51:52;19.92;;;9.02;;
34775;SDS011;20989;52.566;13.346;2022-08-25T11:06:04;12.75;;;7.35;;
34775;SDS011;20989;52.566;13.346;2022-08-25T11:12:04;10.63;;;6.78;;
34775;SDS011;20989;52.566;13.346;2022-08-25T11:18:19;18.00;;;7.00;;
34775;SDS011;20989;52.566;13.346;2022-08-25T11:21:32;16.50;;;7.55;;
34775;SDS011;20989;52.566;13.346;2022-08-25T11:28:10;12.40;;;6.40;;
34775;SDS011;20989;52.566;13.346;2022-08-25T11:31:15;11.00;;;5.88;;
34775;SDS011;20989;52.566;13.346;2022-08-25T11:34:19;8.38;;;5.88;;
34775;SDS011;20989;52.566;13.346;2022-08-25T11:37:23;9.80;;;5.90;;
34775;SDS011;20989;52.566;13.346;2022-08-25T11:43:44;11.90;;;6.50;;
34775;SDS011;20989;52.566;13.346;2022-08-25T11:53:39;8.93;;;5.47;;
34775;SDS011;20989;52.566;13.346;2022-08-25T11:56:41;8.52;;;6.22;;
34775;SDS011;20989;52.566;13.346;2022-08-25T12:06:31;13.02;;;5.07;;
34775;SDS011;20989;52.566;13.346;2022-08-25T12:09:34;7.80;;;5.20;;
34775;SDS011;20989;52.566;13.346;2022-08-25T12:12:54;7.72;;;5.13;;
34775;SDS011;20989;52.566;13.346;2022-08-25T12:15:56;7.28;;;4.88;;
34775;SDS011;20989;52.566;13.346;2022-08-25T12:25:34;9.95;;;4.95;;
34775;SDS011;20989;52.566;13.346;2022-08-25T12:29:18;6.38;;;4.85;;
34775;SDS011;20989;52.566;13.346;2022-08-25T12:39:07;6.82;;;5.05;;
34775;SDS011;20989;52.566;13.346;2022-08-25T12:42:30;5.57;;;5.00;;
34775;SDS011;20989;52.566;13.346;2022-08-25T12:45:38;4.53;;;4.13;;
34775;SDS011;20989;52.566;13.346;2022-08-25T12:48:52;6.97;;;4.55;;
34775;SDS011;20989;52.566;13.346;2022-08-25T12:55:04;7.38;;;4.70;;
34775;SDS011;20989;52.566;13.346;2022-08-25T12:58:10;10.20;;;5.38;;
34775;SDS011;20989;52.566;13.346;2022-08-25T13:11:11;7.82;;;5.03;;
34775;SDS011;20989;52.566;13.346;2022-08-25T13:17:39;15.38;;;5.05;;
34775;SDS011;20989;52.566;13.346;2022-08-25T13:20:40;7.07;;;4.85;;
34775;SDS011;20989;52.566;13.346;2022-08-25T13:23:43;12.52;;;5.35;;
34775;SDS011;20989;52.566;13.346;2022-08-25T13:26:54;11.05;;;4.57;;
34775;SDS011;20989;52.566;13.346;2022-08-25T13:30:05;11.93;;;5.13;;
34775;SDS011;20989;52.566;13.346;2022-08-25T13:33:19;9.70;;;5.00;;
34775;SDS011;20989;52.566;13.346;2022-08-25T13:36:25;10.75;;;5.13;;
34775;SDS011;20989;52.566;13.346;2022-08-25T13:39:45;5.97;;;4.28;;
34775;SDS011;20989;52.566;13.346;2022-08-25T13:42:47;7.07;;;4.95;;
34775;SDS011;20989;52.566;13.346;2022-08-25T13:45:49;12.98;;;5.55;;
34775;SDS011;20989;52.566;13.346;2022-08-25T13:49:00;8.20;;;5.35;;
34775;SDS011;20989;52.566;13.346;2022-08-25T13:52:03;7.72;;;4.93;;
34775;SDS011;20989;52.566;13.346;2022-08-25T13:55:06;8.48;;;4.53;;
34775;SDS011;20989;52.566;13.346;2022-08-25T13:58:10;10.38;;;5.40;;
34775;SDS011;20989;52.566;13.346;2022-08-25T14:04:28;8.18;;;5.10;;
34775;SDS011;20989;52.566;13.346;2022-08-25T14:07:54;12.32;;;5.85;;
34775;SDS011;20989;52.566;13.346;2022-08-25T14:11:09;14.57;;;5.85;;
34775;SDS011;20989;52.566;13.346;2022-08-25T14:17:22;11.23;;;6.40;;
34775;SDS011;20989;52.566;13.346;2022-08-25T14:20:23;16.98;;;6.25;;
34775;SDS011;20989;52.566;13.346;2022-08-25T14:23:28;12.75;;;6.78;;
34775;SDS011;20989;52.566;13.346;2022-08-25T14:26:29;24.25;;;7.18;;
34775;SDS011;20989;52.566;13.346;2022-08-25T14:29:30;15.32;;;6.38;;
34775;SDS011;20989;52.566;13.346;2022-08-25T14:32:31;17.88;;;6.00;;
34775;SDS011;20989;52.566;13.346;2022-08-25T14:35:32;16.65;;;6.47;;
34775;SDS011;20989;52.566;13.346;2022-08-25T14:38:33;16.58;;;5.82;;
34775;SDS011;20989;52.566;13.346;2022-08-25T14:41:35;11.48;;;6.07;;
34775;SDS011;20989;52.566;13.346;2022-08-25T14:44:37;20.92;;;7.00;;
34775;SDS011;20989;52.566;13.346;2022-08-25T14:47:38;15.80;;;6.07;;
34775;SDS011;20989;52.566;13.346;2022-08-25T14:50:39;19.23;;;6.70;;
34775;SDS011;20989;52.566;13.346;2022-08-25T14:53:41;11.88;;;6.10;;
34775;SDS011;20989;52.566;13.346;2022-08-25T14:56:43;21.17;;;8.18;;
34775;SDS011;20989;52.566;13.346;2022-08-25T14:59:45;15.98;;;6.47;;
34775;SDS011;20989;52.566;13.346;2022-08-25T15:02:46;18.85;;;6.72;;
34775;SDS011;20989;52.566;13.346;2022-08-25T15:05:49;22.38;;;6.75;;
34775;SDS011;20989;52.566;13.346;2022-08-25T15:08:49;16.02;;;5.70;;
34775;SDS011;20989;52.566;13.346;2022-08-25T15:12:10;14.85;;;5.95;;
34775;SDS011;20989;52.566;13.346;2022-08-25T15:15:10;23.25;;;6.18;;
34775;SDS011;20989;52.566;13.346;2022-08-25T15:18:11;22.38;;;6.53;;
34775;SDS011;20989;52.566;13.346;2022-08-25T15:21:12;17.77;;;6.07;;
34775;SDS011;20989;52.566;13.346;2022-08-25T15:24:13;21.23;;;7.18;;
34775;SDS011;20989;52.566;13.346;2022-08-25T15:27:17;13.07;;;5.82;;
34775;SDS011;20989;52.566;13.346;2022-08-25T15:30:19;14.20;;;6.35;;
34775;SDS011;20989;52.566;13.346;2022-08-25T15:33:20;22.25;;;6.25;;
34775;SDS011;20989;52.566;13.346;2022-08-25T15:36:23;14.40;;;6.85;;
34775;SDS011;20989;52.566;13.346;2022-08-25T15:39:24;21.85;;;6.05;;
34775;SDS011;20989;52.566;13.346;2022-08-25T15:42:25;20.83;;;6.63;;
34775;SDS011;20989;52.566;13.346;2022-08-25T15:45:26;14.82;;;5.85;;
34775;SDS011;20989;52.566;13.346;2022-08-25T15:48:27;19.05;;;6.75;;
34775;SDS011;20989;52.566;13.346;2022-08-25T15:51:28;17.67;;;6.00;;
34775;SDS011;20989;52.566;13.346;2022-08-25T15:54:29;22.27;;;6.57;;
34775;SDS011;20989;52.566;13.346;2022-08-25T15:57:31;14.07;;;6.53;;
34775;SDS011;20989;52.566;13.346;2022-08-25T16:00:32;17.00;;;5.68;;
34775;SDS011;20989;52.566;13.346;2022-08-25T16:03:32;16.73;;;6.55;;
34775;SDS011;20989;52.566;13.346;2022-08-25T16:06:33;18.77;;;7.22;;
34775;SDS011;20989;52.566;13.346;2022-08-25T16:09:34;21.65;;;5.93;;
34775;SDS011;20989;52.566;13.346;2022-08-25T16:12:34;14.38;;;6.20;;
34775;SDS011;20989;52.566;13.346;2022-08-25T16:15:36;19.55;;;6.32;;
34775;SDS011;20989;52.566;13.346;2022-08-25T16:18:37;24.08;;;6.55;;
34775;SDS011;20989;52.566;13.346;2022-08-25T16:21:38;15.82;;;5.95;;
34775;SDS011;20989;52.566;13.346;2022-08-25T16:24:41;14.02;;;5.97;;
34775;SDS011;20989;52.566;13.346;2022-08-25T16:27:46;12.20;;;6.35;;
34775;SDS011;20989;52.566;13.346;2022-08-25T16:30:47;11.20;;;5.53;;
34775;SDS011;20989;52.566;13.346;2022-08-25T16:33:48;25.02;;;6.28;;
34775;SDS011;20989;52.566;13.346;2022-08-25T16:36:50;21.83;;;7.10;;
34775;SDS011;20989;52.566;13.346;2022-08-25T16:39:53;25.73;;;6.07;;
34775;SDS011;20989;52.566;13.346;2022-08-25T16:42:54;17.80;;;5.78;;
34775;SDS011;20989;52.566;13.346;2022-08-25T16:45:56;26.30;;;6.25;;
34775;SDS011;20989;52.566;13.346;2022-08-25T16:49:04;22.30;;;5.63;;
34775;SDS011;20989;52.566;13.346;2022-08-25T16:52:05;17.92;;;5.60;;
34775;SDS011;20989;52.566;13.346;2022-08-25T16:55:26;18.48;;;5.70;;
34775;SDS011;20989;52.566;13.346;2022-08-25T16:58:27;22.08;;;5.88;;
34775;SDS011;20989;52.566;13.346;2022-08-25T17:01:29;25.15;;;6.78;;
34775;SDS011;20989;52.566;13.346;2022-08-25T17:04:32;18.83;;;6.88;;
34775;SDS011;20989;52.566;13.346;2022-08-25T17:07:33;23.00;;;7.28;;
34775;SDS011;20989;52.566;13.346;2022-08-25T17:10:38;31.40;;;7.35;;
34775;SDS011;20989;52.566;13.346;2022-08-25T17:13:42;24.75;;;7.20;;
34775;SDS011;20989;52.566;13.346;2022-08-25T17:16:44;28.83;;;6.45;;
34775;SDS011;20989;52.566;13.346;2022-08-25T17:19:46;24.27;;;6.80;;
34775;SDS011;20989;52.566;13.346;2022-08-25T17:22:47;32.25;;;7.10;;
34775;SDS011;20989;52.566;13.346;2022-08-25T17:25:48;23.45;;;6.20;;
34775;SDS011;20989;52.566;13.346;2022-08-25T17:28:49;26.42;;;6.03;;
34775;SDS011;20989;52.566;13.346;2022-08-25T17:31:49;25.50;;;6.68;;
34775;SDS011;20989;52.566;13.346;2022-08-25T17:34:50;41.47;;;7.35;;
34775;SDS011;20989;52.566;13.346;2022-08-25T17:37:50;25.88;;;6.63;;
34775;SDS011;20989;52.566;13.346;2022-08-25T17:40:52;22.10;;;6.10;;
34775;SDS011;20989;52.566;13.346;2022-08-25T17:43:53;24.30;;;6.38;;
34775;SDS011;20989;52.566;13.346;2022-08-25T17:46:54;34.67;;;6.50;;
34775;SDS011;20989;52.566;13.346;2022-08-25T17:49:55;19.83;;;6.18;;
34775;SDS011;20989;52.566;13.346;2022-08-25T17:52:56;27.02;;;7.35;;
34775;SDS011;20989;52.566;13.346;2022-08-25T17:56:01;26.58;;;6.82;;
34775;SDS011;20989;52.566;13.346;2022-08-25T17:59:07;18.83;;;5.75;;
34775;SDS011;20989;52.566;13.346;2022-08-25T18:02:08;42.10;;;7.68;;
34775;SDS011;20989;52.566;13.346;2022-08-25T18:05:09;31.67;;;7.28;;
34775;SDS011;20989;52.566;13.346;2022-08-25T18:08:11;127.75;;;12.85;;
34775;SDS011;20989;52.566;13.346;2022-08-25T18:11:15;64.38;;;8.73;;
34775;SDS011;20989;52.566;13.346;2022-08-25T18:14:15;51.33;;;7.95;;
34775;SDS011;20989;52.566;13.346;2022-08-25T18:17:17;32.67;;;6.85;;
34775;SDS011;20989;52.566;13.346;2022-08-25T18:20:18;52.65;;;7.47;;
34775;SDS011;20989;52.566;13.346;2022-08-25T18:23:19;37.80;;;7.60;;
34775;SDS011;20989;52.566;13.346;2022-08-25T18:26:19;32.58;;;6.30;;
34775;SDS011;20989;52.566;13.346;2022-08-25T18:29:20;31.73;;;5.55;;
34775;SDS011;20989;52.566;13.346;2022-08-25T18:32:21;29.38;;;5.97;;
34775;SDS011;20989;52.566;13.346;2022-08-25T18:35:21;22.02;;;6.07;;
34775;SDS011;20989;52.566;13.346;2022-08-25T18:38:22;27.65;;;5.80;;
34775;SDS011;20989;52.566;13.346;2022-08-25T18:41:41;22.55;;;5.50;;
34775;SDS011;20989;52.566;13.346;2022-08-25T18:44:42;21.60;;;5.90;;
34775;SDS011;20989;52.566;13.346;2022-08-25T18:47:43;25.52;;;5.60;;
34775;SDS011;20989;52.566;13.346;2022-08-25T18:50:44;12.73;;;5.15;;
34775;SDS011;20989;52.566;13.346;2022-08-25T18:53:45;23.55;;;5.55;;
34775;SDS011;20989;52.566;13.346;2022-08-25T18:56:46;14.07;;;4.82;;
34775;SDS011;20989;52.566;13.346;2022-08-25T18:59:47;15.60;;;5.57;;
34775;SDS011;20989;52.566;13.346;2022-08-25T19:02:48;12.77;;;4.68;;
34775;SDS011;20989;52.566;13.346;2022-08-25T19:05:51;12.57;;;4.88;;
34775;SDS011;20989;52.566;13.346;2022-08-25T19:08:54;11.30;;;4.90;;
34775;SDS011;20989;52.566;13.346;2022-08-25T19:11:54;13.55;;;4.93;;
34775;SDS011;20989;52.566;13.346;2022-08-25T19:14:55;17.67;;;4.85;;
34775;SDS011;20989;52.566;13.346;2022-08-25T19:17:57;9.25;;;4.88;;
34775;SDS011;20989;52.566;13.346;2022-08-25T19:20:58;12.90;;;5.03;;
34775;SDS011;20989;52.566;13.346;2022-08-25T19:23:58;10.88;;;4.65;;
34775;SDS011;20989;52.566;13.346;2022-08-25T19:26:59;11.90;;;4.20;;
34775;SDS011;20989;52.566;13.346;2022-08-25T19:30:02;9.48;;;3.88;;
34775;SDS011;20989;52.566;13.346;2022-08-25T19:33:05;9.90;;;4.03;;
34775;SDS011;20989;52.566;13.346;2022-08-25T19:36:07;7.15;;;3.90;;
34775;SDS011;20989;52.566;13.346;2022-08-25T19:39:09;12.57;;;3.90;;
34775;SDS011;20989;52.566;13.346;2022-08-25T19:42:10;9.85;;;4.05;;
34775;SDS011;20989;52.566;13.346;2022-08-25T19:45:11;8.10;;;3.75;;
34775;SDS011;20989;52.566;13.346;2022-08-25T19:48:12;8.80;;;3.88;;
34775;SDS011;20989;52.566;13.346;2022-08-25T19:51:13;14.90;;;4.38;;
34775;SDS011;20989;52.566;13.346;2022-08-25T19:54:15;7.05;;;3.83;;
34775;SDS011;20989;52.566;13.346;2022-08-25T19:57:19;9.52;;;3.70;;